sensor_id;sensor_type;location;lat;lon;timestamp;temperature;humidity
16838;DHT22;19510;54.486;9.046;2023-10-13T00:01:59;10.80;99.90
16838;DHT22;19510;54.486;9.046;2023-10-13T00:04:27;10.90;99.90
16838;DHT22;19510;54.486;9.046;2023-10-13T00:06:53;10.90;99.90
16838;DHT22;19510;54.486;9.046;2023-10-13T00:09:20;11.00;99.90
16838;DHT22;19510;54.486;9.046;2023-10-13T00:11:55;11.00;99.90
16838;DHT22;19510;54.486;9.046;2023-10-13T00:14:22;11.10;99.90
16838;DHT22;19510;54.486;9.046;2023-10-13T00:16:48;11.10;99.90
16838;DHT22;19510;54.486;9.046;2023-10-13T00:19:33;11.10;99.90
16838;DHT22;19510;54.486;9.046;2023-10-13T00:22:17;11.10;99.90
16838;DHT22;19510;54.486;9.046;2023-10-13T00:24:48;11.10;99.90
16838;DHT22;19510;54.486;9.046;2023-10-13T00:27:20;11.10;99.90
16838;DHT22;19510;54.486;9.046;2023-10-13T00:29:56;11.20;99.90
16838;DHT22;19510;54.486;9.046;2023-10-13T00:32:44;11.20;99.90
16838;DHT22;19510;54.486;9.046;2023-10-13T00:35:12;11.30;99.90
16838;DHT22;19510;54.486;9.046;2023-10-13T00:37:51;11.30;99.90
16838;DHT22;19510;54.486;9.046;2023-10-13T00:40:19;11.30;99.90
16838;DHT22;19510;54.486;9.046;2023-10-13T00:43:00;11.30;99.90
16838;DHT22;19510;54.486;9.046;2023-10-13T00:45:52;11.30;99.90
16838;DHT22;19510;54.486;9.046;2023-10-13T00:48:30;11.40;99.90
16838;DHT22;19510;54.486;9.046;2023-10-13T00:51:06;11.40;99.90
16838;DHT22;19510;54.486;9.046;2023-10-13T00:53:36;11.50;99.90
16838;DHT22;19510;54.486;9.046;2023-10-13T00:56:10;11.50;99.90
16838;DHT22;19510;54.486;9.046;2023-10-13T00:58:45;11.50;99.90
16838;DHT22;19510;54.486;9.046;2023-10-13T01:01:11;11.50;99.90
16838;DHT22;19510;54.486;9.046;2023-10-13T01:03:45;11.50;99.90
16838;DHT22;19510;54.486;9.046;2023-10-13T01:06:11;11.50;99.90
16838;DHT22;19510;54.486;9.046;2023-10-13T01:08:38;11.60;99.90
16838;DHT22;19510;54.486;9.046;2023-10-13T01:11:04;11.60;99.90
16838;DHT22;19510;54.486;9.046;2023-10-13T01:13:33;11.60;99.90
16838;DHT22;19510;54.486;9.046;2023-10-13T01:16:02;11.60;99.90
16838;DHT22;19510;54.486;9.046;2023-10-13T01:18:29;11.60;99.90
16838;DHT22;19510;54.486;9.046;2023-10-13T01:20:55;11.60;99.90
16838;DHT22;19510;54.486;9.046;2023-10-13T01:23:26;11.60;99.90
16838;DHT22;19510;54.486;9.046;2023-10-13T01:25:54;11.60;99.90
16838;DHT22;19510;54.486;9.046;2023-10-13T01:28:22;11.70;99.90
16838;DHT22;19510;54.486;9.046;2023-10-13T01:30:49;11.60;99.90
16838;DHT22;19510;54.486;9.046;2023-10-13T01:33:19;11.70;99.90
16838;DHT22;19510;54.486;9.046;2023-10-13T01:35:57;11.70;99.90
16838;DHT22;19510;54.486;9.046;2023-10-13T01:38:24;11.70;99.90
16838;DHT22;19510;54.486;9.046;2023-10-13T01:40:53;11.70;99.90
16838;DHT22;19510;54.486;9.046;2023-10-13T01:43:22;11.70;99.90
16838;DHT22;19510;54.486;9.046;2023-10-13T01:45:48;11.70;99.90
16838;DHT22;19510;54.486;9.046;2023-10-13T01:48:15;11.80;99.90
16838;DHT22;19510;54.486;9.046;2023-10-13T01:50:43;11.80;99.90
16838;DHT22;19510;54.486;9.046;2023-10-13T01:53:14;11.80;99.90
16838;DHT22;19510;54.486;9.046;2023-10-13T01:55:43;11.80;99.90
16838;DHT22;19510;54.486;9.046;2023-10-13T01:58:15;11.80;99.90
16838;DHT22;19510;54.486;9.046;2023-10-13T02:00:45;11.90;99.90
16838;DHT22;19510;54.486;9.046;2023-10-13T02:03:12;11.90;99.90
16838;DHT22;19510;54.486;9.046;2023-10-13T02:05:42;11.90;99.90
16838;DHT22;19510;54.486;9.046;2023-10-13T02:08:16;12.00;99.90
16838;DHT22;19510;54.486;9.046;2023-10-13T02:10:55;12.00;99.90
16838;DHT22;19510;54.486;9.046;2023-10-13T02:13:21;12.00;99.90
16838;DHT22;19510;54.486;9.046;2023-10-13T02:15:48;12.00;99.90
16838;DHT22;19510;54.486;9.046;2023-10-13T02:18:19;12.00;99.90
16838;DHT22;19510;54.486;9.046;2023-10-13T02:21:08;12.00;99.90
16838;DHT22;19510;54.486;9.046;2023-10-13T02:23:42;12.00;99.90
16838;DHT22;19510;54.486;9.046;2023-10-13T02:26:13;12.00;99.90
16838;DHT22;19510;54.486;9.046;2023-10-13T02:28:41;12.00;99.90
16838;DHT22;19510;54.486;9.046;2023-10-13T02:31:07;12.00;99.90
16838;DHT22;19510;54.486;9.046;2023-10-13T02:33:33;12.00;99.90
16838;DHT22;19510;54.486;9.046;2023-10-13T02:36:02;12.00;99.90
16838;DHT22;19510;54.486;9.046;2023-10-13T02:38:33;12.00;99.90
16838;DHT22;19510;54.486;9.046;2023-10-13T02:41:17;12.10;99.90
16838;DHT22;19510;54.486;9.046;2023-10-13T02:43:56;12.10;99.90
16838;DHT22;19510;54.486;9.046;2023-10-13T02:46:25;12.10;99.90
16838;DHT22;19510;54.486;9.046;2023-10-13T02:48:54;12.10;99.90
16838;DHT22;19510;54.486;9.046;2023-10-13T02:51:23;12.10;99.90
16838;DHT22;19510;54.486;9.046;2023-10-13T02:54:01;12.10;99.90
16838;DHT22;19510;54.486;9.046;2023-10-13T02:56:45;12.10;99.90
16838;DHT22;19510;54.486;9.046;2023-10-13T02:59:32;12.20;99.90
16838;DHT22;19510;54.486;9.046;2023-10-13T03:02:15;12.20;99.90
16838;DHT22;19510;54.486;9.046;2023-10-13T03:04:58;12.10;99.90
16838;DHT22;19510;54.486;9.046;2023-10-13T03:07:35;12.10;99.90
16838;DHT22;19510;54.486;9.046;2023-10-13T03:10:06;12.10;99.90
16838;DHT22;19510;54.486;9.046;2023-10-13T03:12:41;12.10;99.90
16838;DHT22;19510;54.486;9.046;2023-10-13T03:15:07;12.10;99.90
16838;DHT22;19510;54.486;9.046;2023-10-13T03:17:36;12.10;99.90
16838;DHT22;19510;54.486;9.046;2023-10-13T03:20:02;12.10;99.90
16838;DHT22;19510;54.486;9.046;2023-10-13T03:22:31;12.10;99.90
16838;DHT22;19510;54.486;9.046;2023-10-13T03:24:57;12.10;99.90
16838;DHT22;19510;54.486;9.046;2023-10-13T03:27:30;12.10;99.90
16838;DHT22;19510;54.486;9.046;2023-10-13T03:30:14;12.20;99.90
16838;DHT22;19510;54.486;9.046;2023-10-13T03:32:40;12.20;99.90
16838;DHT22;19510;54.486;9.046;2023-10-13T03:35:12;12.20;99.90
16838;DHT22;19510;54.486;9.046;2023-10-13T03:37:50;12.20;99.90
16838;DHT22;19510;54.486;9.046;2023-10-13T03:40:16;12.20;99.90
16838;DHT22;19510;54.486;9.046;2023-10-13T03:42:45;12.20;99.90
16838;DHT22;19510;54.486;9.046;2023-10-13T03:45:23;12.20;99.90
16838;DHT22;19510;54.486;9.046;2023-10-13T03:47:50;12.20;99.90
16838;DHT22;19510;54.486;9.046;2023-10-13T03:50:22;12.20;99.90
16838;DHT22;19510;54.486;9.046;2023-10-13T03:52:55;12.20;99.90
16838;DHT22;19510;54.486;9.046;2023-10-13T03:55:24;12.30;99.90
16838;DHT22;19510;54.486;9.046;2023-10-13T03:57:52;12.30;99.90
16838;DHT22;19510;54.486;9.046;2023-10-13T04:00:20;12.30;99.90
16838;DHT22;19510;54.486;9.046;2023-10-13T04:02:53;12.30;99.90
16838;DHT22;19510;54.486;9.046;2023-10-13T04:05:31;12.40;99.90
16838;DHT22;19510;54.486;9.046;2023-10-13T04:08:04;12.40;99.90
16838;DHT22;19510;54.486;9.046;2023-10-13T04:10:48;12.40;99.90
16838;DHT22;19510;54.486;9.046;2023-10-13T04:13:19;12.40;99.90
16838;DHT22;19510;54.486;9.046;2023-10-13T04:16:04;12.40;99.90
16838;DHT22;19510;54.486;9.046;2023-10-13T04:18:51;12.40;99.90
16838;DHT22;19510;54.486;9.046;2023-10-13T04:21:22;12.40;99.90
16838;DHT22;19510;54.486;9.046;2023-10-13T04:24:07;12.40;99.90
16838;DHT22;19510;54.486;9.046;2023-10-13T04:26:43;12.50;99.90
16838;DHT22;19510;54.486;9.046;2023-10-13T04:29:29;12.50;99.90
16838;DHT22;19510;54.486;9.046;2023-10-13T04:32:14;12.50;99.90
16838;DHT22;19510;54.486;9.046;2023-10-13T04:34:45;12.50;99.90
16838;DHT22;19510;54.486;9.046;2023-10-13T04:37:14;12.50;99.90
16838;DHT22;19510;54.486;9.046;2023-10-13T04:39:57;12.50;99.90
16838;DHT22;19510;54.486;9.046;2023-10-13T04:42:36;12.50;99.90
16838;DHT22;19510;54.486;9.046;2023-10-13T04:45:24;12.50;99.90
16838;DHT22;19510;54.486;9.046;2023-10-13T04:47:56;12.60;99.90
16838;DHT22;19510;54.486;9.046;2023-10-13T04:50:46;12.60;99.90
16838;DHT22;19510;54.486;9.046;2023-10-13T04:53:17;12.60;99.90
16838;DHT22;19510;54.486;9.046;2023-10-13T04:59:19;12.60;99.90
16838;DHT22;19510;54.486;9.046;2023-10-13T05:02:01;12.60;99.90
16838;DHT22;19510;54.486;9.046;2023-10-13T05:05:09;12.60;99.90
16838;DHT22;19510;54.486;9.046;2023-10-13T05:07:47;12.60;99.90
16838;DHT22;19510;54.486;9.046;2023-10-13T05:10:33;12.70;99.90
16838;DHT22;19510;54.486;9.046;2023-10-13T05:13:17;12.70;99.90
16838;DHT22;19510;54.486;9.046;2023-10-13T05:16:02;12.70;99.90
16838;DHT22;19510;54.486;9.046;2023-10-13T05:18:48;12.70;99.90
16838;DHT22;19510;54.486;9.046;2023-10-13T05:21:32;12.70;99.90
16838;DHT22;19510;54.486;9.046;2023-10-13T05:24:16;12.90;99.90
16838;DHT22;19510;54.486;9.046;2023-10-13T05:27:00;12.80;99.90
16838;DHT22;19510;54.486;9.046;2023-10-13T05:29:46;12.80;99.90
16838;DHT22;19510;54.486;9.046;2023-10-13T05:32:30;12.90;99.90
16838;DHT22;19510;54.486;9.046;2023-10-13T05:35:15;12.90;99.90
16838;DHT22;19510;54.486;9.046;2023-10-13T05:38:00;12.90;99.90
16838;DHT22;19510;54.486;9.046;2023-10-13T05:41:01;13.00;99.90
16838;DHT22;19510;54.486;9.046;2023-10-13T05:43:45;13.00;99.90
16838;DHT22;19510;54.486;9.046;2023-10-13T05:46:30;13.10;99.90
16838;DHT22;19510;54.486;9.046;2023-10-13T05:49:02;13.10;99.90
16838;DHT22;19510;54.486;9.046;2023-10-13T05:51:32;13.10;99.90
16838;DHT22;19510;54.486;9.046;2023-10-13T05:54:00;13.20;99.90
16838;DHT22;19510;54.486;9.046;2023-10-13T05:56:35;13.20;99.90
16838;DHT22;19510;54.486;9.046;2023-10-13T05:59:20;13.30;99.90
16838;DHT22;19510;54.486;9.046;2023-10-13T06:02:04;13.30;99.90
16838;DHT22;19510;54.486;9.046;2023-10-13T06:04:48;13.40;99.90
16838;DHT22;19510;54.486;9.046;2023-10-13T06:07:32;13.50;99.90
16838;DHT22;19510;54.486;9.046;2023-10-13T06:10:16;13.50;99.90
16838;DHT22;19510;54.486;9.046;2023-10-13T06:13:00;13.50;99.90
16838;DHT22;19510;54.486;9.046;2023-10-13T06:15:44;13.60;99.90
16838;DHT22;19510;54.486;9.046;2023-10-13T06:18:28;13.60;99.90
16838;DHT22;19510;54.486;9.046;2023-10-13T06:21:12;13.70;99.90
16838;DHT22;19510;54.486;9.046;2023-10-13T06:23:56;13.80;99.90
16838;DHT22;19510;54.486;9.046;2023-10-13T06:26:48;13.80;99.90
16838;DHT22;19510;54.486;9.046;2023-10-13T06:29:32;13.90;99.90
16838;DHT22;19510;54.486;9.046;2023-10-13T06:31:58;13.90;99.90
16838;DHT22;19510;54.486;9.046;2023-10-13T06:34:29;14.00;99.90
16838;DHT22;19510;54.486;9.046;2023-10-13T06:37:17;14.10;99.90
16838;DHT22;19510;54.486;9.046;2023-10-13T06:39:56;14.20;99.90
16838;DHT22;19510;54.486;9.046;2023-10-13T06:42:25;14.30;99.90
16838;DHT22;19510;54.486;9.046;2023-10-13T06:44:54;14.40;99.90
16838;DHT22;19510;54.486;9.046;2023-10-13T06:47:24;14.50;99.90
16838;DHT22;19510;54.486;9.046;2023-10-13T06:49:50;14.50;99.90
16838;DHT22;19510;54.486;9.046;2023-10-13T06:52:20;14.60;99.90
16838;DHT22;19510;54.486;9.046;2023-10-13T06:54:51;14.60;99.90
16838;DHT22;19510;54.486;9.046;2023-10-13T06:57:18;14.70;99.90
16838;DHT22;19510;54.486;9.046;2023-10-13T06:59:49;14.70;99.90
16838;DHT22;19510;54.486;9.046;2023-10-13T07:02:17;14.80;99.90
16838;DHT22;19510;54.486;9.046;2023-10-13T07:04:49;14.90;99.90
16838;DHT22;19510;54.486;9.046;2023-10-13T07:07:19;14.90;99.90
16838;DHT22;19510;54.486;9.046;2023-10-13T07:09:47;15.00;99.90
16838;DHT22;19510;54.486;9.046;2023-10-13T07:12:23;15.00;99.90
16838;DHT22;19510;54.486;9.046;2023-10-13T07:14:52;15.10;99.90
16838;DHT22;19510;54.486;9.046;2023-10-13T07:17:19;15.20;99.90
16838;DHT22;19510;54.486;9.046;2023-10-13T07:19:52;15.20;99.90
16838;DHT22;19510;54.486;9.046;2023-10-13T07:22:25;15.20;99.90
16838;DHT22;19510;54.486;9.046;2023-10-13T07:24:53;15.20;99.90
16838;DHT22;19510;54.486;9.046;2023-10-13T07:27:22;15.20;99.90
16838;DHT22;19510;54.486;9.046;2023-10-13T07:29:53;15.30;99.90
16838;DHT22;19510;54.486;9.046;2023-10-13T07:32:32;15.30;99.90
16838;DHT22;19510;54.486;9.046;2023-10-13T07:34:59;15.30;99.90
16838;DHT22;19510;54.486;9.046;2023-10-13T07:37:34;15.30;99.90
16838;DHT22;19510;54.486;9.046;2023-10-13T07:40:00;15.40;99.90
16838;DHT22;19510;54.486;9.046;2023-10-13T07:42:26;15.40;99.90
16838;DHT22;19510;54.486;9.046;2023-10-13T07:44:58;15.40;99.90
16838;DHT22;19510;54.486;9.046;2023-10-13T07:47:24;15.40;99.90
16838;DHT22;19510;54.486;9.046;2023-10-13T07:50:08;15.40;99.90
16838;DHT22;19510;54.486;9.046;2023-10-13T07:52:35;15.50;99.90
16838;DHT22;19510;54.486;9.046;2023-10-13T07:55:06;15.50;99.90
16838;DHT22;19510;54.486;9.046;2023-10-13T07:57:42;15.50;99.90
16838;DHT22;19510;54.486;9.046;2023-10-13T08:00:24;15.60;99.90
16838;DHT22;19510;54.486;9.046;2023-10-13T08:03:08;15.60;99.90
16838;DHT22;19510;54.486;9.046;2023-10-13T08:05:51;15.60;99.90
16838;DHT22;19510;54.486;9.046;2023-10-13T08:08:27;15.70;99.90
16838;DHT22;19510;54.486;9.046;2023-10-13T08:11:09;15.70;99.90
16838;DHT22;19510;54.486;9.046;2023-10-13T08:13:43;15.70;99.90
16838;DHT22;19510;54.486;9.046;2023-10-13T08:16:15;15.80;99.90
16838;DHT22;19510;54.486;9.046;2023-10-13T08:18:50;15.80;99.90
16838;DHT22;19510;54.486;9.046;2023-10-13T08:21:16;15.80;99.90
16838;DHT22;19510;54.486;9.046;2023-10-13T08:23:43;15.80;99.90
16838;DHT22;19510;54.486;9.046;2023-10-13T08:26:25;15.80;99.90
16838;DHT22;19510;54.486;9.046;2023-10-13T08:29:05;15.80;99.90
16838;DHT22;19510;54.486;9.046;2023-10-13T08:31:51;15.80;99.90
16838;DHT22;19510;54.486;9.046;2023-10-13T08:34:36;15.80;99.90
16838;DHT22;19510;54.486;9.046;2023-10-13T08:37:14;15.80;99.90
16838;DHT22;19510;54.486;9.046;2023-10-13T08:39:54;15.80;99.90
16838;DHT22;19510;54.486;9.046;2023-10-13T08:42:35;15.80;99.90
16838;DHT22;19510;54.486;9.046;2023-10-13T08:45:12;15.80;99.90
16838;DHT22;19510;54.486;9.046;2023-10-13T08:47:57;15.80;99.90
16838;DHT22;19510;54.486;9.046;2023-10-13T08:50:39;15.80;99.90
16838;DHT22;19510;54.486;9.046;2023-10-13T08:53:21;15.80;99.90
16838;DHT22;19510;54.486;9.046;2023-10-13T08:56:13;15.80;99.90
16838;DHT22;19510;54.486;9.046;2023-10-13T08:58:45;15.80;99.90
16838;DHT22;19510;54.486;9.046;2023-10-13T09:01:26;15.90;99.90
16838;DHT22;19510;54.486;9.046;2023-10-13T09:04:08;15.80;99.90
16838;DHT22;19510;54.486;9.046;2023-10-13T09:06:58;15.80;99.90
16838;DHT22;19510;54.486;9.046;2023-10-13T09:12:16;15.80;99.90
16838;DHT22;19510;54.486;9.046;2023-10-13T09:14:56;15.80;99.90
16838;DHT22;19510;54.486;9.046;2023-10-13T09:17:30;15.80;99.90
16838;DHT22;19510;54.486;9.046;2023-10-13T09:19:59;15.80;99.90
16838;DHT22;19510;54.486;9.046;2023-10-13T09:22:47;15.80;99.90
16838;DHT22;19510;54.486;9.046;2023-10-13T09:25:31;15.80;99.90
16838;DHT22;19510;54.486;9.046;2023-10-13T09:30:50;15.80;99.90
16838;DHT22;19510;54.486;9.046;2023-10-13T09:33:23;15.90;99.90
16838;DHT22;19510;54.486;9.046;2023-10-13T09:36:05;15.90;99.90
16838;DHT22;19510;54.486;9.046;2023-10-13T09:38:38;15.90;99.90
16838;DHT22;19510;54.486;9.046;2023-10-13T09:41:07;16.00;99.90
16838;DHT22;19510;54.486;9.046;2023-10-13T09:43:51;16.00;99.90
16838;DHT22;19510;54.486;9.046;2023-10-13T09:46:22;16.10;99.90
16838;DHT22;19510;54.486;9.046;2023-10-13T09:48:49;16.10;99.90
16838;DHT22;19510;54.486;9.046;2023-10-13T09:51:30;16.10;99.90
16838;DHT22;19510;54.486;9.046;2023-10-13T09:54:14;16.20;99.90
16838;DHT22;19510;54.486;9.046;2023-10-13T09:56:50;16.20;99.90
16838;DHT22;19510;54.486;9.046;2023-10-13T10:02:14;16.20;99.90
16838;DHT22;19510;54.486;9.046;2023-10-13T10:04:51;16.20;99.90
16838;DHT22;19510;54.486;9.046;2023-10-13T10:07:25;16.20;99.90
16838;DHT22;19510;54.486;9.046;2023-10-13T10:09:58;16.20;99.90
16838;DHT22;19510;54.486;9.046;2023-10-13T10:17:28;16.20;99.90
16838;DHT22;19510;54.486;9.046;2023-10-13T10:19:55;16.10;99.90
16838;DHT22;19510;54.486;9.046;2023-10-13T10:25:11;16.10;99.90
16838;DHT22;19510;54.486;9.046;2023-10-13T10:28:01;16.00;99.90
16838;DHT22;19510;54.486;9.046;2023-10-13T10:30:35;16.00;99.90
16838;DHT22;19510;54.486;9.046;2023-10-13T10:33:06;16.00;99.90
16838;DHT22;19510;54.486;9.046;2023-10-13T10:35:43;15.90;99.90
16838;DHT22;19510;54.486;9.046;2023-10-13T10:38:21;15.90;99.90
16838;DHT22;19510;54.486;9.046;2023-10-13T10:41:01;15.80;99.90
16838;DHT22;19510;54.486;9.046;2023-10-13T10:43:38;15.90;99.90
16838;DHT22;19510;54.486;9.046;2023-10-13T10:46:14;16.00;99.90
16838;DHT22;19510;54.486;9.046;2023-10-13T10:48:41;16.00;99.90
16838;DHT22;19510;54.486;9.046;2023-10-13T10:51:11;16.00;99.90
16838;DHT22;19510;54.486;9.046;2023-10-13T10:53:58;16.00;99.90
16838;DHT22;19510;54.486;9.046;2023-10-13T10:56:36;16.00;99.90
16838;DHT22;19510;54.486;9.046;2023-10-13T10:59:06;16.00;99.90
16838;DHT22;19510;54.486;9.046;2023-10-13T11:01:46;16.00;99.90
16838;DHT22;19510;54.486;9.046;2023-10-13T11:04:18;16.00;99.90
16838;DHT22;19510;54.486;9.046;2023-10-13T11:06:50;16.00;99.90
16838;DHT22;19510;54.486;9.046;2023-10-13T11:11:53;16.00;99.90
16838;DHT22;19510;54.486;9.046;2023-10-13T11:14:27;15.90;99.90
16838;DHT22;19510;54.486;9.046;2023-10-13T11:16:58;15.90;99.90
16838;DHT22;19510;54.486;9.046;2023-10-13T11:19:48;15.90;99.90
16838;DHT22;19510;54.486;9.046;2023-10-13T11:22:17;15.90;99.90
16838;DHT22;19510;54.486;9.046;2023-10-13T11:25:05;16.00;99.90
16838;DHT22;19510;54.486;9.046;2023-10-13T11:27:38;16.00;99.90
16838;DHT22;19510;54.486;9.046;2023-10-13T11:30:17;16.00;99.90
16838;DHT22;19510;54.486;9.046;2023-10-13T11:33:01;16.10;99.90
16838;DHT22;19510;54.486;9.046;2023-10-13T11:35:35;16.10;99.90
16838;DHT22;19510;54.486;9.046;2023-10-13T11:38:23;16.20;99.90
16838;DHT22;19510;54.486;9.046;2023-10-13T11:40:57;16.20;99.90
16838;DHT22;19510;54.486;9.046;2023-10-13T11:43:58;16.30;99.90
16838;DHT22;19510;54.486;9.046;2023-10-13T11:46:42;16.40;99.90
16838;DHT22;19510;54.486;9.046;2023-10-13T11:49:14;16.40;99.90
16838;DHT22;19510;54.486;9.046;2023-10-13T11:51:49;16.60;99.90
16838;DHT22;19510;54.486;9.046;2023-10-13T11:54:20;16.60;99.90
16838;DHT22;19510;54.486;9.046;2023-10-13T11:56:48;16.60;99.90
16838;DHT22;19510;54.486;9.046;2023-10-13T11:59:14;16.70;99.90
16838;DHT22;19510;54.486;9.046;2023-10-13T12:01:49;16.80;99.90
16838;DHT22;19510;54.486;9.046;2023-10-13T12:04:34;16.90;99.90
16838;DHT22;19510;54.486;9.046;2023-10-13T12:07:07;17.00;99.90
16838;DHT22;19510;54.486;9.046;2023-10-13T12:09:59;17.00;99.90
16838;DHT22;19510;54.486;9.046;2023-10-13T12:12:26;17.10;99.90
16838;DHT22;19510;54.486;9.046;2023-10-13T12:14:52;17.20;99.90
16838;DHT22;19510;54.486;9.046;2023-10-13T12:17:24;17.30;99.90
16838;DHT22;19510;54.486;9.046;2023-10-13T12:19:54;17.30;99.90
16838;DHT22;19510;54.486;9.046;2023-10-13T12:22:20;17.30;99.90
16838;DHT22;19510;54.486;9.046;2023-10-13T12:24:54;17.40;99.90
16838;DHT22;19510;54.486;9.046;2023-10-13T12:27:23;17.40;99.90
16838;DHT22;19510;54.486;9.046;2023-10-13T12:29:53;17.50;99.90
16838;DHT22;19510;54.486;9.046;2023-10-13T12:32:19;17.50;99.90
16838;DHT22;19510;54.486;9.046;2023-10-13T12:34:49;17.50;99.90
16838;DHT22;19510;54.486;9.046;2023-10-13T12:37:28;17.50;99.90
16838;DHT22;19510;54.486;9.046;2023-10-13T12:40:16;17.60;99.90
16838;DHT22;19510;54.486;9.046;2023-10-13T12:43:02;17.70;99.90
16838;DHT22;19510;54.486;9.046;2023-10-13T12:45:48;17.70;99.90
16838;DHT22;19510;54.486;9.046;2023-10-13T12:48:36;17.70;99.90
16838;DHT22;19510;54.486;9.046;2023-10-13T12:51:23;17.80;99.90
16838;DHT22;19510;54.486;9.046;2023-10-13T12:53:58;17.80;99.90
16838;DHT22;19510;54.486;9.046;2023-10-13T12:56:30;17.80;99.90
16838;DHT22;19510;54.486;9.046;2023-10-13T12:58:58;17.80;99.90
16838;DHT22;19510;54.486;9.046;2023-10-13T13:01:25;17.80;99.90
16838;DHT22;19510;54.486;9.046;2023-10-13T13:03:58;17.80;99.90
16838;DHT22;19510;54.486;9.046;2023-10-13T13:06:26;17.90;99.90
16838;DHT22;19510;54.486;9.046;2023-10-13T13:08:52;17.90;99.90
16838;DHT22;19510;54.486;9.046;2023-10-13T13:11:18;17.90;99.90
16838;DHT22;19510;54.486;9.046;2023-10-13T13:13:45;18.00;99.90
16838;DHT22;19510;54.486;9.046;2023-10-13T13:16:15;18.00;99.90
16838;DHT22;19510;54.486;9.046;2023-10-13T13:18:44;18.00;99.90
16838;DHT22;19510;54.486;9.046;2023-10-13T13:21:10;18.00;99.90
16838;DHT22;19510;54.486;9.046;2023-10-13T13:23:45;18.00;99.90
16838;DHT22;19510;54.486;9.046;2023-10-13T13:26:11;18.00;99.90
16838;DHT22;19510;54.486;9.046;2023-10-13T13:28:45;18.00;99.90
16838;DHT22;19510;54.486;9.046;2023-10-13T13:31:19;18.00;99.90
16838;DHT22;19510;54.486;9.046;2023-10-13T13:33:50;18.00;99.90
16838;DHT22;19510;54.486;9.046;2023-10-13T13:36:16;18.00;99.90
16838;DHT22;19510;54.486;9.046;2023-10-13T13:38:43;18.10;99.90
16838;DHT22;19510;54.486;9.046;2023-10-13T13:41:14;18.10;99.90
16838;DHT22;19510;54.486;9.046;2023-10-13T13:43:43;18.10;99.90
16838;DHT22;19510;54.486;9.046;2023-10-13T13:49:26;18.10;99.90
16838;DHT22;19510;54.486;9.046;2023-10-13T13:52:05;18.10;99.90
16838;DHT22;19510;54.486;9.046;2023-10-13T13:54:31;18.10;99.90
16838;DHT22;19510;54.486;9.046;2023-10-13T13:56:56;18.10;99.90
16838;DHT22;19510;54.486;9.046;2023-10-13T13:59:23;18.10;99.90
16838;DHT22;19510;54.486;9.046;2023-10-13T14:01:48;18.10;99.90
16838;DHT22;19510;54.486;9.046;2023-10-13T14:04:14;18.10;99.90
16838;DHT22;19510;54.486;9.046;2023-10-13T14:06:44;18.00;99.90
16838;DHT22;19510;54.486;9.046;2023-10-13T14:09:11;17.90;99.90
16838;DHT22;19510;54.486;9.046;2023-10-13T14:11:57;18.00;99.90
16838;DHT22;19510;54.486;9.046;2023-10-13T14:14:41;17.90;99.90
16838;DHT22;19510;54.486;9.046;2023-10-13T14:17:13;17.90;99.90
16838;DHT22;19510;54.486;9.046;2023-10-13T14:19:44;17.90;99.90
16838;DHT22;19510;54.486;9.046;2023-10-13T14:22:11;17.90;99.90
16838;DHT22;19510;54.486;9.046;2023-10-13T14:24:40;17.80;99.90
16838;DHT22;19510;54.486;9.046;2023-10-13T14:27:11;17.90;99.90
16838;DHT22;19510;54.486;9.046;2023-10-13T14:29:39;17.90;99.90
16838;DHT22;19510;54.486;9.046;2023-10-13T14:32:12;17.80;99.90
16838;DHT22;19510;54.486;9.046;2023-10-13T14:34:42;17.80;99.90
16838;DHT22;19510;54.486;9.046;2023-10-13T14:37:08;17.80;99.90
16838;DHT22;19510;54.486;9.046;2023-10-13T14:39:38;17.90;99.90
16838;DHT22;19510;54.486;9.046;2023-10-13T14:42:04;17.90;99.90
16838;DHT22;19510;54.486;9.046;2023-10-13T14:44:33;17.90;99.90
16838;DHT22;19510;54.486;9.046;2023-10-13T14:47:00;17.80;99.90
16838;DHT22;19510;54.486;9.046;2023-10-13T14:49:26;17.90;99.90
16838;DHT22;19510;54.486;9.046;2023-10-13T14:51:52;17.90;99.90
16838;DHT22;19510;54.486;9.046;2023-10-13T14:54:21;17.80;99.90
16838;DHT22;19510;54.486;9.046;2023-10-13T14:56:59;17.80;99.90
16838;DHT22;19510;54.486;9.046;2023-10-13T14:59:24;17.80;99.90
16838;DHT22;19510;54.486;9.046;2023-10-13T15:01:50;17.80;99.90
16838;DHT22;19510;54.486;9.046;2023-10-13T15:04:16;17.80;99.90
16838;DHT22;19510;54.486;9.046;2023-10-13T15:06:42;17.80;99.90
16838;DHT22;19510;54.486;9.046;2023-10-13T15:09:09;17.80;99.90
16838;DHT22;19510;54.486;9.046;2023-10-13T15:11:37;17.80;99.90
16838;DHT22;19510;54.486;9.046;2023-10-13T15:14:03;17.80;99.90
16838;DHT22;19510;54.486;9.046;2023-10-13T15:16:32;17.80;99.90
16838;DHT22;19510;54.486;9.046;2023-10-13T15:18:59;17.80;99.90
16838;DHT22;19510;54.486;9.046;2023-10-13T15:21:31;17.80;99.90
16838;DHT22;19510;54.486;9.046;2023-10-13T15:24:06;17.80;99.90
16838;DHT22;19510;54.486;9.046;2023-10-13T15:26:49;17.80;99.90
16838;DHT22;19510;54.486;9.046;2023-10-13T15:29:18;17.80;99.90
16838;DHT22;19510;54.486;9.046;2023-10-13T15:35:12;17.80;99.90
16838;DHT22;19510;54.486;9.046;2023-10-13T15:37:41;17.90;99.90
16838;DHT22;19510;54.486;9.046;2023-10-13T15:40:13;17.90;99.90
16838;DHT22;19510;54.486;9.046;2023-10-13T15:42:43;17.90;99.90
16838;DHT22;19510;54.486;9.046;2023-10-13T15:45:11;17.80;99.90
16838;DHT22;19510;54.486;9.046;2023-10-13T15:47:46;17.90;99.90
16838;DHT22;19510;54.486;9.046;2023-10-13T15:50:17;17.90;99.90
16838;DHT22;19510;54.486;9.046;2023-10-13T15:52:46;17.90;99.90
16838;DHT22;19510;54.486;9.046;2023-10-13T15:55:16;17.90;99.90
16838;DHT22;19510;54.486;9.046;2023-10-13T15:57:43;17.90;99.90
16838;DHT22;19510;54.486;9.046;2023-10-13T16:00:10;17.90;99.90
16838;DHT22;19510;54.486;9.046;2023-10-13T16:02:53;17.90;99.90
16838;DHT22;19510;54.486;9.046;2023-10-13T16:05:20;17.90;99.90
16838;DHT22;19510;54.486;9.046;2023-10-13T16:07:50;17.90;99.90
16838;DHT22;19510;54.486;9.046;2023-10-13T16:10:17;18.00;99.90
16838;DHT22;19510;54.486;9.046;2023-10-13T16:12:43;18.00;99.90
16838;DHT22;19510;54.486;9.046;2023-10-13T16:15:11;18.00;99.90
16838;DHT22;19510;54.486;9.046;2023-10-13T16:17:42;18.10;99.90
16838;DHT22;19510;54.486;9.046;2023-10-13T16:20:09;18.00;99.90
16838;DHT22;19510;54.486;9.046;2023-10-13T16:22:45;18.00;99.90
16838;DHT22;19510;54.486;9.046;2023-10-13T16:25:15;18.00;99.90
16838;DHT22;19510;54.486;9.046;2023-10-13T16:27:46;18.00;99.90
16838;DHT22;19510;54.486;9.046;2023-10-13T16:30:14;18.10;99.90
16838;DHT22;19510;54.486;9.046;2023-10-13T16:32:48;18.10;99.90
16838;DHT22;19510;54.486;9.046;2023-10-13T16:35:16;18.10;99.90
16838;DHT22;19510;54.486;9.046;2023-10-13T16:37:46;18.10;99.90
16838;DHT22;19510;54.486;9.046;2023-10-13T16:40:16;18.10;99.90
16838;DHT22;19510;54.486;9.046;2023-10-13T16:42:44;18.10;99.90